Time;durP1;ratioP1;P1;durP2;ratioP2;P2;SDS_P1;SDS_P2;PMS_P1;PMS_P2;Temp;Humidity;BMP_temperature;BMP_pressure;BME280_temperature;BME280_humidity;BME280_pressure;Samples;Min_cycle;Max_cycle;Signal;HPM_P1;HPM_P2
2023/12/29 00:02:00;;;;;;;69.03;39.33;;;7.50;76.10;;;;;;5076518;28;20100;-64
2023/12/29 00:04:26;;;;;;;76.82;41.13;;;7.50;76.00;;;;;;5077011;28;20039;-64
2023/12/29 00:06:52;;;;;;;76.45;43.65;;;7.50;75.90;;;;;;5076421;28;20052;-64
2023/12/29 00:09:21;;;;;;;70.90;39.30;;;7.40;76.00;;;;;;5076667;28;20059;-64
2023/12/29 00:11:49;;;;;;;76.25;42.58;;;7.40;76.00;;;;;;5076791;28;20410;-64
2023/12/29 00:14:15;;;;;;;79.35;42.53;;;7.40;76.00;;;;;;5075828;28;20062;-64
2023/12/29 00:16:42;;;;;;;76.55;41.25;;;7.30;76.10;;;;;;5076251;28;20035;-64
2023/12/29 00:19:08;;;;;;;82.57;44.05;;;7.30;76.10;;;;;;5076193;28;20048;-64
2023/12/29 00:21:35;;;;;;;80.10;44.13;;;7.30;76.10;;;;;;5076082;28;20024;-64
2023/12/29 00:24:01;;;;;;;71.63;39.50;;;7.30;76.00;;;;;;5076051;28;20511;-64
2023/12/29 00:26:27;;;;;;;70.28;40.53;;;7.30;76.00;;;;;;5076611;28;20042;-64
2023/12/29 00:28:54;;;;;;;71.30;39.85;;;7.20;76.00;;;;;;5076306;28;20025;-65
2023/12/29 00:31:20;;;;;;;74.10;42.08;;;7.20;75.90;;;;;;5075942;28;20101;-64
2023/12/29 00:33:46;;;;;;;74.22;38.97;;;7.10;75.90;;;;;;5075668;28;20049;-64
2023/12/29 00:36:16;;;;;;;75.10;39.35;;;7.10;75.90;;;;;;5076170;28;20082;-64
2023/12/29 00:38:42;;;;;;;68.72;37.97;;;7.10;76.00;;;;;;5076100;28;20047;-64
2023/12/29 00:41:09;;;;;;;80.07;42.53;;;7.00;75.90;;;;;;5076346;28;20032;-64
2023/12/29 00:43:35;;;;;;;74.35;42.08;;;7.00;75.80;;;;;;5075979;28;20021;-64
2023/12/29 00:46:03;;;;;;;71.93;42.33;;;6.90;75.90;;;;;;5075984;28;20040;-65
2023/12/29 00:48:30;;;;;;;75.78;42.35;;;6.90;75.80;;;;;;5075908;28;20081;-64
2023/12/29 00:50:56;;;;;;;69.25;39.80;;;6.90;75.80;;;;;;5075676;28;20017;-64
2023/12/29 00:53:22;;;;;;;70.85;37.42;;;6.80;76.00;;;;;;5075561;28;20035;-64
2023/12/29 00:55:50;;;;;;;75.22;43.17;;;6.80;76.20;;;;;;5075498;28;20556;-64
2023/12/29 00:58:19;;;;;;;75.00;40.80;;;6.80;76.10;;;;;;5075605;28;20024;-64
2023/12/29 01:00:45;;;;;;;78.22;39.55;;;6.70;75.90;;;;;;5075786;28;20028;-64
2023/12/29 01:03:11;;;;;;;69.03;38.95;;;6.70;76.00;;;;;;5075444;28;20024;-64
2023/12/29 01:05:38;;;;;;;70.97;39.15;;;6.60;76.10;;;;;;5075495;28;20116;-64
2023/12/29 01:08:04;;;;;;;71.60;40.63;;;6.60;76.10;;;;;;5075977;28;20020;-64
2023/12/29 01:10:30;;;;;;;72.82;40.80;;;6.60;76.30;;;;;;5075591;28;20071;-64
2023/12/29 01:12:56;;;;;;;61.75;34.45;;;6.60;75.90;;;;;;5075325;28;20021;-64
2023/12/29 01:15:22;;;;;;;69.00;36.20;;;6.60;76.10;;;;;;5075612;28;20030;-64
2023/12/29 01:17:48;;;;;;;61.03;33.83;;;6.60;76.30;;;;;;5075358;28;20349;-64
2023/12/29 01:20:14;;;;;;;59.92;35.15;;;6.50;76.30;;;;;;5075514;28;20044;-64
2023/12/29 01:22:40;;;;;;;67.68;38.85;;;6.50;76.20;;;;;;5075473;28;20021;-65
2023/12/29 01:25:07;;;;;;;71.53;38.03;;;6.50;76.10;;;;;;5074853;28;20024;-64
2023/12/29 01:27:33;;;;;;;63.72;35.63;;;6.50;76.00;;;;;;5057453;28;20500;-64
2023/12/29 01:30:00;;;;;;;65.05;35.67;;;6.50;76.10;;;;;;5075481;28;20456;-64
2023/12/29 01:32:26;;;;;;;59.15;36.25;;;6.40;76.20;;;;;;5075157;28;20482;-64
2023/12/29 01:34:53;;;;;;;68.80;38.03;;;6.40;76.10;;;;;;5074921;28;20457;-64
2023/12/29 01:37:18;;;;;;;70.10;38.10;;;6.40;75.90;;;;;;5075126;28;20154;-64
2023/12/29 01:39:45;;;;;;;69.72;38.30;;;6.40;75.90;;;;;;5075091;28;20037;-64
2023/12/29 01:42:11;;;;;;;62.17;35.15;;;6.30;75.80;;;;;;5075119;28;20024;-64
2023/12/29 01:44:37;;;;;;;60.28;33.75;;;6.30;76.00;;;;;;5075053;28;20024;-64
2023/12/29 01:47:10;;;;;;;65.28;35.38;;;6.20;76.20;;;;;;5075003;28;20024;-64
2023/12/29 01:49:37;;;;;;;59.08;34.30;;;6.20;76.30;;;;;;5075361;28;20025;-64
2023/12/29 01:52:04;;;;;;;55.88;32.60;;;6.20;76.50;;;;;;5075195;28;20037;-64
2023/12/29 01:54:37;;;;;;;62.17;34.80;;;6.20;76.20;;;;;;5074877;28;20031;-64
2023/12/29 01:57:04;;;;;;;65.38;35.00;;;6.20;76.40;;;;;;5075263;28;20032;-64
2023/12/29 01:59:32;;;;;;;60.65;36.00;;;6.20;76.00;;;;;;5075460;28;20028;-64
2023/12/29 02:01:58;;;;;;;53.70;32.35;;;6.10;76.30;;;;;;5074879;28;20028;-64
2023/12/29 02:04:25;;;;;;;62.00;34.92;;;6.20;76.20;;;;;;5057176;28;20029;-64
2023/12/29 02:06:51;;;;;;;70.20;37.90;;;6.10;76.10;;;;;;5074889;28;20083;-64
2023/12/29 02:09:18;;;;;;;73.85;39.80;;;6.00;76.10;;;;;;5075389;28;20073;-64
2023/12/29 02:11:48;;;;;;;65.47;36.60;;;6.00;76.20;;;;;;5074994;28;20032;-64
2023/12/29 02:14:18;;;;;;;64.70;36.60;;;6.00;76.20;;;;;;5075023;28;20051;-64
2023/12/29 02:16:56;;;;;;;63.65;35.58;;;6.00;76.30;;;;;;5074761;28;20012;-64
2023/12/29 02:19:40;;;;;;;68.70;37.03;;;5.90;76.20;;;;;;5075380;28;20028;-64
2023/12/29 02:22:07;;;;;;;;;;;5.90;76.30;;;;;;5075132;28;20361;-64
2023/12/29 02:24:37;;;;;;;62.17;31.10;;;5.90;76.40;;;;;;5074665;28;20275;-64
2023/12/29 02:27:17;;;;;;;61.50;33.05;;;5.90;76.30;;;;;;5075228;28;20075;-64
2023/12/29 02:29:57;;;;;;;57.83;32.15;;;5.90;76.30;;;;;;5075170;28;20024;-64
2023/12/29 02:32:30;;;;;;;62.28;34.45;;;5.90;76.30;;;;;;5075111;28;20175;-64
2023/12/29 02:34:57;;;;;;;57.92;32.97;;;5.90;76.40;;;;;;5074393;28;20044;-64
2023/12/29 02:37:24;;;;;;;56.83;31.48;;;5.90;76.40;;;;;;5076242;28;20028;-64
2023/12/29 02:39:51;;;;;;;61.47;34.47;;;5.90;76.30;;;;;;5078441;28;20103;-64
2023/12/29 02:42:17;;;;;;;61.47;36.65;;;5.80;76.30;;;;;;5078080;28;20039;-64
2023/12/29 02:44:43;;;;;;;57.20;31.77;;;5.80;76.20;;;;;;5077967;28;20024;-64
2023/12/29 02:47:10;;;;;;;62.45;33.97;;;5.80;76.20;;;;;;5078080;28;20473;-64
2023/12/29 02:49:36;;;;;;;52.92;31.27;;;5.70;76.00;;;;;;5077929;28;20028;-64
2023/12/29 02:52:02;;;;;;;59.75;34.47;;;5.60;76.00;;;;;;5078385;28;20039;-64
2023/12/29 02:54:28;;;;;;;58.70;33.08;;;5.60;76.20;;;;;;5077896;28;20021;-64
2023/12/29 02:56:55;;;;;;;59.40;32.70;;;5.60;76.40;;;;;;5078111;28;20024;-64
2023/12/29 02:59:21;;;;;;;53.53;31.80;;;5.60;76.20;;;;;;5078296;28;20104;-63
2023/12/29 03:01:47;;;;;;;59.00;34.97;;;5.60;76.30;;;;;;5078070;28;20104;-64
2023/12/29 03:04:13;;;;;;;54.03;29.42;;;5.50;76.30;;;;;;5077952;28;20078;-64
2023/12/29 03:06:41;;;;;;;51.88;30.27;;;5.50;76.30;;;;;;5077712;28;20028;-64
2023/12/29 03:09:08;;;;;;;57.80;30.10;;;5.50;76.30;;;;;;5059972;28;20376;-64
2023/12/29 03:11:34;;;;;;;54.00;31.52;;;5.50;76.30;;;;;;5078022;28;20413;-64
2023/12/29 03:14:00;;;;;;;49.05;28.98;;;5.40;76.30;;;;;;5077768;28;20103;-64
2023/12/29 03:16:26;;;;;;;50.90;29.52;;;5.40;76.20;;;;;;5078007;28;20028;-64
2023/12/29 03:18:52;;;;;;;49.08;28.52;;;5.40;76.40;;;;;;5077451;28;20360;-64
2023/12/29 03:21:18;;;;;;;50.22;28.88;;;5.40;76.40;;;;;;5077870;28;20028;-64
2023/12/29 03:23:44;;;;;;;53.38;30.77;;;5.40;76.50;;;;;;5077573;28;20112;-64
2023/12/29 03:26:11;;;;;;;59.45;31.52;;;5.40;76.20;;;;;;5077844;28;20032;-64
2023/12/29 03:28:37;;;;;;;49.45;27.08;;;5.30;75.80;;;;;;5077778;28;20103;-64
2023/12/29 03:31:03;;;;;;;47.65;27.83;;;5.30;76.00;;;;;;5077072;28;20028;-64
2023/12/29 03:33:30;;;;;;;49.35;27.13;;;5.30;76.10;;;;;;5077046;28;20051;-64
2023/12/29 03:35:56;;;;;;;43.00;24.98;;;5.30;76.20;;;;;;5077706;28;20332;-64
2023/12/29 03:38:22;;;;;;;50.42;26.73;;;5.30;76.20;;;;;;5077578;28;20468;-64
2023/12/29 03:40:48;;;;;;;49.15;28.48;;;5.30;76.20;;;;;;5077269;28;20048;-64
2023/12/29 03:43:16;;;;;;;50.90;27.08;;;5.20;76.10;;;;;;5076888;28;20036;-64
2023/12/29 03:45:43;;;;;;;46.80;26.00;;;5.20;76.20;;;;;;5076906;28;20028;-64
2023/12/29 03:48:09;;;;;;;48.60;27.45;;;5.20;76.60;;;;;;5076249;28;20055;-64
2023/12/29 03:50:36;;;;;;;44.38;25.42;;;5.20;76.40;;;;;;5077177;28;20039;-64
2023/12/29 03:53:02;;;;;;;44.33;24.90;;;5.10;76.40;;;;;;5077164;28;20028;-64
2023/12/29 03:55:28;;;;;;;50.30;26.65;;;5.10;76.40;;;;;;5076909;28;20384;-64
2023/12/29 03:57:56;;;;;;;49.17;26.98;;;5.20;76.40;;;;;;5076658;28;20499;-64
2023/12/29 04:00:22;;;;;;;43.83;25.63;;;5.20;76.60;;;;;;5076574;28;20067;-64
2023/12/29 04:02:48;;;;;;;43.60;23.55;;;5.20;76.40;;;;;;5076755;28;20021;-64
2023/12/29 04:05:15;;;;;;;42.03;23.48;;;5.10;76.20;;;;;;5076478;28;20066;-64
2023/12/29 04:07:43;;;;;;;47.00;26.00;;;5.10;76.30;;;;;;5076962;28;20029;-64
2023/12/29 04:10:10;;;;;;;42.53;25.98;;;5.10;76.10;;;;;;5076394;28;20077;-64
2023/12/29 04:12:37;;;;;;;48.25;24.65;;;5.10;76.30;;;;;;5076292;28;20104;-64
2023/12/29 04:15:06;;;;;;;41.30;23.02;;;5.10;76.20;;;;;;5076259;28;20029;-64
2023/12/29 04:17:32;;;;;;;44.45;25.60;;;5.00;76.50;;;;;;5058636;28;20387;-64
2023/12/29 04:19:59;;;;;;;40.65;23.60;;;5.10;76.30;;;;;;5076297;28;20107;-64
2023/12/29 04:22:25;;;;;;;44.25;25.90;;;5.00;76.30;;;;;;5076111;28;20047;-63
2023/12/29 04:24:52;;;;;;;46.15;26.17;;;5.00;76.30;;;;;;5076312;28;20028;-64
2023/12/29 04:27:19;;;;;;;47.40;26.35;;;5.00;76.30;;;;;;5076639;28;20020;-64
2023/12/29 04:29:46;;;;;;;41.55;24.77;;;5.00;76.40;;;;;;5076064;28;20032;-64
2023/12/29 04:32:11;;;;;;;42.60;24.83;;;5.00;76.50;;;;;;5336624;22;20068;-64
2023/12/29 04:34:37;;;;;;;44.30;25.63;;;5.00;76.80;;;;;;5056040;28;20036;-64
2023/12/29 04:37:03;;;;;;;45.67;24.73;;;5.00;76.70;;;;;;5056230;28;20495;-64
2023/12/29 04:39:29;;;;;;;41.30;24.65;;;5.00;76.80;;;;;;5056122;28;20389;-64
2023/12/29 04:41:55;;;;;;;41.00;24.30;;;5.00;76.80;;;;;;5045887;28;20453;-64
2023/12/29 04:44:21;;;;;;;42.40;24.63;;;5.00;76.70;;;;;;5036151;28;20029;-64
2023/12/29 04:46:47;;;;;;;43.60;26.17;;;5.00;76.50;;;;;;5036391;28;20018;-64
2023/12/29 04:49:13;;;;;;;40.00;23.30;;;4.90;76.10;;;;;;5035763;28;20064;-64
2023/12/29 04:51:39;;;;;;;45.72;24.63;;;4.90;76.00;;;;;;5035626;28;20101;-64
2023/12/29 04:54:05;;;;;;;42.03;22.73;;;4.80;76.20;;;;;;5036004;28;20051;-64
2023/12/29 04:56:31;;;;;;;43.08;24.05;;;4.80;76.40;;;;;;5035937;28;20026;-64
2023/12/29 04:58:59;;;;;;;37.47;21.92;;;4.80;76.50;;;;;;5034662;28;20369;-63
2023/12/29 05:01:25;;;;;;;37.65;22.10;;;4.80;76.80;;;;;;5035467;28;20036;-64
2023/12/29 05:03:51;;;;;;;44.20;23.65;;;4.80;76.80;;;;;;5035563;28;20021;-64
2023/12/29 05:06:17;;;;;;;46.97;24.05;;;4.90;76.90;;;;;;5036084;28;20354;-64
2023/12/29 05:08:43;;;;;;;42.22;23.50;;;4.90;76.80;;;;;;5035514;28;20048;-64
2023/12/29 05:11:09;;;;;;;44.90;24.45;;;4.90;76.90;;;;;;5035353;28;20091;-64
2023/12/29 05:13:35;;;;;;;42.35;24.77;;;4.90;77.00;;;;;;5035742;28;20113;-64
2023/12/29 05:16:03;;;;;;;40.45;22.95;;;4.90;76.90;;;;;;5035684;28;20049;-64
2023/12/29 05:18:29;;;;;;;43.58;25.15;;;4.90;76.80;;;;;;5035329;28;20037;-64
2023/12/29 05:20:55;;;;;;;42.97;23.80;;;4.90;76.90;;;;;;5035307;28;20071;-64
2023/12/29 05:23:22;;;;;;;44.58;25.25;;;4.90;76.90;;;;;;5035870;28;20022;-64
2023/12/29 05:25:48;;;;;;;44.95;24.17;;;4.90;77.00;;;;;;5316615;22;20057;-63
2023/12/29 05:28:14;;;;;;;47.55;23.90;;;4.90;76.90;;;;;;5035298;28;20040;-63
2023/12/29 05:30:41;;;;;;;41.50;23.13;;;4.90;77.00;;;;;;5017662;28;20033;-63
2023/12/29 05:33:07;;;;;;;38.25;22.48;;;4.90;76.80;;;;;;5035510;28;20341;-63
2023/12/29 05:35:34;;;;;;;42.42;24.38;;;4.80;76.80;;;;;;5035156;28;20033;-64
2023/12/29 05:38:00;;;;;;;41.90;24.10;;;4.80;76.80;;;;;;5035486;28;20060;-64
2023/12/29 05:40:26;;;;;;;39.50;21.80;;;4.80;76.70;;;;;;5035064;28;20022;-63
2023/12/29 05:42:53;;;;;;;42.25;23.15;;;4.80;76.70;;;;;;5035629;28;20203;-63
2023/12/29 05:45:19;;;;;;;34.17;20.40;;;4.80;76.80;;;;;;5034988;28;20025;-63
2023/12/29 05:47:45;;;;;;;47.80;23.90;;;4.80;76.60;;;;;;5035642;28;20342;-63
2023/12/29 05:50:11;;;;;;;37.17;21.85;;;4.70;76.70;;;;;;5017620;28;20029;-64
2023/12/29 05:52:37;;;;;;;40.90;21.92;;;4.70;76.90;;;;;;5034936;28;20029;-64
2023/12/29 05:55:04;;;;;;;37.85;20.88;;;4.70;76.90;;;;;;5035438;28;20083;-63
2023/12/29 05:57:30;;;;;;;34.15;19.70;;;4.70;76.80;;;;;;5035488;28;20022;-63
2023/12/29 05:59:56;;;;;;;39.10;21.92;;;4.70;76.80;;;;;;5034955;28;20059;-63
2023/12/29 06:02:22;;;;;;;35.92;19.25;;;4.70;76.70;;;;;;5035498;28;20378;-63
2023/12/29 06:04:48;;;;;;;34.28;20.00;;;4.70;76.70;;;;;;5034843;28;20104;-63
2023/12/29 06:07:14;;;;;;;42.08;22.52;;;4.70;76.80;;;;;;5034885;28;20111;-63
2023/12/29 06:09:41;;;;;;;42.38;23.08;;;4.60;77.00;;;;;;5035312;28;20034;-63
2023/12/29 06:12:07;;;;;;;38.90;19.95;;;4.60;76.80;;;;;;5036166;28;20021;-64
2023/12/29 06:14:35;;;;;;;36.92;21.40;;;4.60;76.60;;;;;;5039110;28;20021;-63
2023/12/29 06:17:01;;;;;;;38.55;20.23;;;4.60;76.60;;;;;;5038611;28;20040;-64
2023/12/29 06:19:28;;;;;;;33.83;18.85;;;4.60;76.70;;;;;;5039000;28;20029;-63
2023/12/29 06:21:54;;;;;;;35.03;18.70;;;4.60;76.70;;;;;;5038657;28;20026;-63
2023/12/29 06:24:20;;;;;;;39.15;20.02;;;4.50;76.70;;;;;;5038910;28;20104;-63
2023/12/29 06:26:47;;;;;;;36.38;19.70;;;4.50;76.80;;;;;;5038206;28;20049;-63
2023/12/29 06:29:13;;;;;;;36.13;19.40;;;4.50;76.80;;;;;;5038645;28;20073;-63
2023/12/29 06:31:42;;;;;;;37.20;19.60;;;4.50;76.90;;;;;;5038252;28;20049;-63
2023/12/29 06:34:09;;;;;;;37.50;20.13;;;4.50;77.00;;;;;;5038281;28;20025;-64
2023/12/29 06:36:34;;;;;;;34.83;19.15;;;4.50;76.70;;;;;;5038693;28;20025;-63
2023/12/29 06:39:01;;;;;;;36.97;18.63;;;4.40;76.60;;;;;;5038204;28;20021;-63
2023/12/29 06:41:27;;;;;;;35.67;17.85;;;4.40;76.50;;;;;;5038151;28;20037;-63
2023/12/29 06:43:53;;;;;;;39.53;19.17;;;4.40;76.60;;;;;;5038100;28;20362;-63
2023/12/29 06:46:19;;;;;;;36.88;17.90;;;4.40;76.60;;;;;;5038031;28;20021;-63
2023/12/29 06:48:47;;;;;;;34.53;18.50;;;4.30;76.70;;;;;;5038311;28;20021;-63
2023/12/29 06:51:18;;;;;;;34.80;17.50;;;4.40;77.10;;;;;;5037874;28;20124;-63
2023/12/29 06:53:46;;;;;;;31.48;18.27;;;4.40;77.10;;;;;;5037604;28;20088;-63
2023/12/29 06:56:16;;;;;;;31.67;17.20;;;4.40;77.10;;;;;;5038588;28;20053;-63
2023/12/29 06:58:43;;;;;;;29.98;15.98;;;4.40;77.10;;;;;;5038424;28;20099;-63
2023/12/29 07:01:10;;;;;;;29.10;16.10;;;4.40;77.10;;;;;;5038081;28;20096;-63
2023/12/29 07:03:37;;;;;;;30.50;16.38;;;4.50;76.90;;;;;;5020251;28;20362;-63
2023/12/29 07:06:04;;;;;;;28.42;16.60;;;4.50;77.00;;;;;;5037696;28;20033;-63
2023/12/29 07:08:31;;;;;;;37.85;17.90;;;4.50;76.80;;;;;;5038245;28;20025;-63
2023/12/29 07:10:57;;;;;;;27.50;15.25;;;4.50;76.80;;;;;;5037755;28;20029;-63
2023/12/29 07:13:23;;;;;;;27.92;14.82;;;4.50;76.90;;;;;;5037838;28;20360;-63
2023/12/29 07:15:49;;;;;;;33.45;16.63;;;4.50;77.00;;;;;;5037412;28;20018;-63
2023/12/29 07:18:15;;;;;;;27.77;14.70;;;4.50;76.90;;;;;;5037421;28;20495;-63
2023/12/29 07:20:42;;;;;;;30.65;16.98;;;4.60;76.90;;;;;;5037525;28;20473;-63
2023/12/29 07:23:09;;;;;;;31.58;15.77;;;4.60;77.00;;;;;;5036699;28;20040;-63
2023/12/29 07:25:35;;;;;;;30.15;15.07;;;4.60;76.90;;;;;;5036974;28;20164;-63
2023/12/29 07:28:01;;;;;;;30.70;14.52;;;4.60;76.80;;;;;;5037283;28;20490;-64
2023/12/29 07:30:27;;;;;;;34.28;16.30;;;4.60;76.80;;;;;;5036509;28;20021;-64
2023/12/29 07:32:53;;;;;;;30.52;15.45;;;4.60;77.00;;;;;;5036121;28;20133;-63
2023/12/29 07:35:19;;;;;;;30.83;16.20;;;4.70;77.20;;;;;;5035981;28;20032;-63
2023/12/29 07:37:47;;;;;;;28.15;15.32;;;4.70;77.10;;;;;;5332420;22;20052;-72
2023/12/29 07:40:14;;;;;;;30.10;15.80;;;4.70;76.90;;;;;;5037171;28;20048;-74
2023/12/29 07:42:41;;;;;;;33.83;16.65;;;4.80;76.80;;;;;;5037043;28;20049;-73
2023/12/29 07:45:08;;;;;;;31.60;16.48;;;4.80;76.80;;;;;;5037616;28;20029;-72
2023/12/29 07:47:36;;;;;;;30.38;16.63;;;4.80;76.90;;;;;;5036795;28;20079;-74
2023/12/29 07:50:02;;;;;;;30.13;15.70;;;4.80;77.00;;;;;;5036847;28;20029;-74
2023/12/29 07:52:30;;;;;;;29.10;15.07;;;4.80;77.00;;;;;;5037038;28;20029;-74
2023/12/29 07:54:56;;;;;;;29.25;17.02;;;4.90;77.00;;;;;;5036805;28;20025;-74
2023/12/29 07:57:23;;;;;;;29.13;15.57;;;4.90;77.10;;;;;;5037070;28;20026;-72
2023/12/29 07:59:49;;;;;;;32.00;18.08;;;4.90;77.20;;;;;;5036611;28;20037;-72
2023/12/29 08:02:16;;;;;;;29.08;15.07;;;4.90;77.20;;;;;;5036816;28;20075;-73
2023/12/29 08:04:45;;;;;;;30.05;16.42;;;4.90;77.10;;;;;;5036461;28;20393;-73
2023/12/29 08:07:11;;;;;;;34.17;15.77;;;5.00;77.40;;;;;;5036324;28;20446;-73
2023/12/29 08:09:37;;;;;;;27.42;15.43;;;5.00;77.40;;;;;;5036955;28;20029;-72
2023/12/29 08:12:04;;;;;;;33.95;15.77;;;5.10;77.40;;;;;;5036335;28;20449;-72
2023/12/29 08:14:30;;;;;;;29.92;16.13;;;5.10;77.40;;;;;;5036378;28;20075;-72
2023/12/29 08:16:57;;;;;;;33.65;19.00;;;5.20;77.70;;;;;;5036817;28;20033;-72
2023/12/29 08:19:27;;;;;;;35.80;19.52;;;5.30;77.60;;;;;;5036196;28;20033;-72
2023/12/29 08:21:54;;;;;;;31.63;17.52;;;5.30;77.60;;;;;;5036803;28;20453;-72
2023/12/29 08:24:21;;;;;;;35.55;18.65;;;5.40;77.80;;;;;;5036194;28;20029;-73
2023/12/29 08:26:48;;;;;;;33.90;17.90;;;5.50;77.70;;;;;;5036644;28;20056;-73
2023/12/29 08:29:15;;;;;;;33.20;18.00;;;5.50;77.50;;;;;;5036048;28;20152;-73
2023/12/29 08:31:42;;;;;;;33.20;17.98;;;5.60;77.30;;;;;;5036238;28;20399;-73
2023/12/29 08:34:09;;;;;;;34.03;18.75;;;5.60;77.30;;;;;;5018455;28;20026;-71
2023/12/29 08:36:38;;;;;;;39.70;21.92;;;5.70;77.50;;;;;;5035436;28;20367;-71
2023/12/29 08:39:06;;;;;;;40.60;22.25;;;5.70;77.50;;;;;;5035309;28;20373;-71
2023/12/29 08:41:33;;;;;;;37.60;21.15;;;5.80;77.40;;;;;;5035653;28;20029;-72
2023/12/29 08:44:00;;;;;;;36.22;20.52;;;5.90;77.30;;;;;;5017924;28;20029;-72
2023/12/29 08:46:34;;;;;;;32.60;18.70;;;5.90;77.10;;;;;;5035604;28;20446;-71
2023/12/29 08:49:01;;;;;;;35.80;18.92;;;5.90;76.90;;;;;;5330814;22;20044;-70
2023/12/29 08:51:28;;;;;;;35.22;19.05;;;6.00;77.00;;;;;;5075412;28;20024;-73
2023/12/29 08:53:55;;;;;;;41.15;20.90;;;6.00;77.10;;;;;;5057968;28;20032;-73
2023/12/29 08:56:21;;;;;;;36.28;20.73;;;6.10;77.10;;;;;;5075982;28;20024;-73
2023/12/29 08:58:48;;;;;;;39.92;21.33;;;6.10;77.10;;;;;;5075328;28;20024;-72
2023/12/29 09:01:14;;;;;;;40.95;21.20;;;6.10;77.20;;;;;;5075339;28;20036;-73
2023/12/29 09:03:41;;;;;;;38.58;21.45;;;6.20;77.00;;;;;;5075725;28;20056;-73
2023/12/29 09:06:08;;;;;;;39.70;20.92;;;6.20;77.30;;;;;;5075708;28;20036;-73
2023/12/29 09:08:35;;;;;;;39.95;20.65;;;6.30;77.40;;;;;;5075293;28;20044;-72
2023/12/29 09:11:02;;;;;;;42.00;22.05;;;6.30;77.30;;;;;;5075586;28;20051;-73
2023/12/29 09:13:29;;;;;;;52.55;28.67;;;6.40;77.40;;;;;;5075252;28;20433;-73
2023/12/29 09:15:55;;;;;;;51.15;27.95;;;6.40;77.40;;;;;;5075249;28;20057;-73
2023/12/29 09:18:22;;;;;;;52.67;32.20;;;6.50;77.40;;;;;;5075807;28;20024;-73
2023/12/29 09:20:48;;;;;;;50.17;26.27;;;6.60;77.40;;;;;;5075248;28;20032;-73
2023/12/29 09:23:15;;;;;;;42.58;24.70;;;6.60;77.30;;;;;;5075793;28;20032;-73
2023/12/29 09:25:41;;;;;;;36.45;20.92;;;6.70;77.50;;;;;;5075486;28;20020;-74
2023/12/29 09:28:09;;;;;;;39.80;22.38;;;6.70;77.50;;;;;;5075677;28;20467;-73
2023/12/29 09:30:35;;;;;;;37.42;21.15;;;6.80;77.60;;;;;;5075044;28;20510;-73
2023/12/29 09:33:02;;;;;;;36.33;19.73;;;6.90;77.80;;;;;;5075077;28;20017;-73
2023/12/29 09:35:29;;;;;;;39.25;21.50;;;7.00;77.50;;;;;;5075687;28;20086;-73
2023/12/29 09:37:59;;;;;;;37.33;22.38;;;7.10;77.60;;;;;;5075126;28;20028;-73
2023/12/29 09:40:27;;;;;;;43.85;23.92;;;7.20;77.60;;;;;;5075516;28;20055;-73
2023/12/29 09:42:53;;;;;;;36.92;21.33;;;7.20;77.50;;;;;;5075002;28;20021;-73
2023/12/29 09:45:25;;;;;;;44.58;24.45;;;7.30;77.50;;;;;;5075047;28;20021;-73
2023/12/29 09:47:53;;;;;;;42.83;22.42;;;7.40;77.30;;;;;;5077681;28;20107;-72
2023/12/29 09:50:21;;;;;;;37.38;20.88;;;7.50;77.40;;;;;;5078771;28;20052;-73
2023/12/29 09:52:52;;;;;;;30.10;18.23;;;7.60;77.40;;;;;;5061271;28;20036;-72
2023/12/29 09:55:19;;;;;;;41.40;22.33;;;7.60;77.50;;;;;;5079535;28;20048;-72
2023/12/29 09:57:48;;;;;;;30.85;17.80;;;7.70;77.60;;;;;;5079287;28;20096;-72
2023/12/29 10:00:16;;;;;;;33.05;18.13;;;7.80;77.50;;;;;;5078940;28;20048;-72
2023/12/29 10:02:42;;;;;;;33.25;19.20;;;7.90;77.40;;;;;;5079368;28;20085;-72
2023/12/29 10:05:09;;;;;;;36.95;20.42;;;8.00;77.70;;;;;;5079044;28;20035;-72
2023/12/29 10:07:43;;;;;;;34.47;19.73;;;8.10;77.70;;;;;;5079004;28;20032;-73
2023/12/29 10:10:19;;;;;;;34.35;19.42;;;8.20;77.50;;;;;;5078720;28;20039;-73
2023/12/29 10:12:48;;;;;;;33.10;18.30;;;8.30;77.60;;;;;;5079128;28;20055;-73
2023/12/29 10:15:34;;;;;;;31.65;17.80;;;8.30;77.50;;;;;;5078854;28;20020;-74
2023/12/29 10:18:21;;;;;;;31.77;17.10;;;8.40;77.30;;;;;;5078367;28;20441;-73
2023/12/29 10:21:01;;;;;;;35.42;17.70;;;8.50;77.10;;;;;;5078475;28;20502;-74
2023/12/29 10:23:46;;;;;;;31.77;17.05;;;8.60;77.10;;;;;;5078467;28;20024;-74
2023/12/29 10:26:13;;;;;;;37.85;18.27;;;8.60;77.10;;;;;;5078225;28;20048;-73
2023/12/29 10:28:40;;;;;;;37.50;21.20;;;8.70;77.30;;;;;;5078718;28;20033;-73
2023/12/29 10:31:09;;;;;;;39.42;19.55;;;8.70;77.50;;;;;;5078163;28;20025;-74
2023/12/29 10:33:36;;;;;;;34.03;19.52;;;8.80;77.50;;;;;;5078675;28;20056;-73
2023/12/29 10:36:05;;;;;;;38.30;19.35;;;8.80;77.20;;;;;;5078290;28;20020;-73
2023/12/29 10:38:31;;;;;;;34.63;20.15;;;8.90;77.10;;;;;;5078050;28;20024;-74
2023/12/29 10:43:38;;;;;;;33.55;18.60;;;8.90;76.90;;;;;;5382491;22;20059;-72
2023/12/29 10:46:08;;;;;;;32.38;19.85;;;9.00;76.90;;;;;;5077938;28;20035;-70
2023/12/29 10:48:36;;;;;;;34.15;19.10;;;9.00;76.80;;;;;;5060351;28;20021;-72
2023/12/29 10:51:04;;;;;;;34.70;18.92;;;9.00;76.80;;;;;;5060203;28;20032;-72
2023/12/29 10:53:34;;;;;;;30.77;17.73;;;9.10;76.70;;;;;;5078074;28;20036;-71
2023/12/29 10:56:00;;;;;;;29.77;17.02;;;9.10;76.60;;;;;;5078086;28;20028;-71
2023/12/29 10:58:28;;;;;;;31.10;17.65;;;9.10;76.50;;;;;;5077620;28;20479;-72
2023/12/29 11:00:58;;;;;;;31.25;18.40;;;9.20;76.40;;;;;;5078287;28;20100;-71
2023/12/29 11:03:24;;;;;;;37.90;20.40;;;9.20;76.20;;;;;;5077485;28;20392;-72
2023/12/29 11:06:00;;;;;;;40.42;22.80;;;9.20;76.40;;;;;;5077840;28;20028;-71
2023/12/29 11:08:31;;;;;;;39.13;21.13;;;9.20;76.30;;;;;;5078249;28;20032;-74
2023/12/29 11:10:57;;;;;;;35.20;20.25;;;9.20;76.40;;;;;;5077957;28;20016;-72
2023/12/29 11:13:26;;;;;;;38.80;22.17;;;9.30;76.30;;;;;;5077419;28;20074;-74
2023/12/29 11:15:53;;;;;;;44.65;22.63;;;9.30;76.30;;;;;;5077982;28;20037;-72
2023/12/29 11:18:20;;;;;;;43.95;23.83;;;9.30;76.30;;;;;;5077138;28;20115;-73
2023/12/29 11:20:47;;;;;;;42.70;22.52;;;9.40;76.30;;;;;;5077471;28;20077;-71
2023/12/29 11:23:14;;;;;;;48.25;24.55;;;9.40;76.20;;;;;;5077215;28;20021;-71
2023/12/29 11:25:40;;;;;;;52.17;27.13;;;9.40;76.10;;;;;;5077285;28;20017;-73
2023/12/29 11:28:12;;;;;;;44.10;23.70;;;9.40;76.20;;;;;;5077231;28;20028;-73
2023/12/29 11:30:39;;;;;;;41.03;22.65;;;9.40;76.10;;;;;;5077277;28;20052;-73
2023/12/29 11:33:34;;;;;;;41.67;22.45;;;9.40;76.00;;;;;;5077055;28;20544;-73
2023/12/29 11:36:16;;;;;;;40.05;21.20;;;9.40;75.90;;;;;;5077328;28;20048;-71
2023/12/29 11:39:02;;;;;;;40.92;21.67;;;9.50;75.80;;;;;;5076960;28;20518;-71
2023/12/29 11:41:43;;;;;;;44.63;21.58;;;9.50;75.70;;;;;;5077233;28;20055;-73
2023/12/29 11:44:09;;;;;;;39.03;20.80;;;9.50;75.70;;;;;;5061494;28;20057;-71
2023/12/29 11:46:37;;;;;;;40.55;20.73;;;9.50;75.80;;;;;;5056749;28;20078;-70
2023/12/29 11:49:04;;;;;;;39.70;20.98;;;9.60;75.80;;;;;;5039186;28;20083;-70
2023/12/29 11:51:36;;;;;;;42.28;21.65;;;9.60;75.80;;;;;;5056506;28;20461;-70
2023/12/29 11:54:04;;;;;;;42.00;21.70;;;9.60;75.80;;;;;;5056695;28;20063;-72
2023/12/29 11:56:35;;;;;;;37.30;20.67;;;9.60;75.80;;;;;;5057106;28;20036;-71
2023/12/29 11:59:23;;;;;;;40.78;21.33;;;9.60;75.70;;;;;;5056839;28;20070;-73
2023/12/29 12:01:54;;;;;;;31.38;18.38;;;9.70;75.70;;;;;;5056456;28;20060;-73
2023/12/29 12:04:43;;;;;;;34.03;19.33;;;9.70;75.70;;;;;;5056311;28;20075;-72
2023/12/29 12:07:33;;;;;;;43.28;22.63;;;9.80;75.60;;;;;;5056926;28;20032;-71
2023/12/29 12:10:33;;;;;;;60.47;30.20;;;9.80;75.60;;;;;;5039133;28;20337;-71
2023/12/29 12:12:59;;;;;;;51.65;26.38;;;9.90;75.60;;;;;;5056199;28;20512;-72
2023/12/29 12:15:31;;;;;;;48.15;25.80;;;9.90;75.50;;;;;;5056256;28;20373;-72
2023/12/29 12:18:07;;;;;;;40.72;22.17;;;9.90;75.20;;;;;;5056238;28;20029;-73
2023/12/29 12:20:38;;;;;;;36.42;19.55;;;10.00;75.10;;;;;;5056462;28;20098;-72
2023/12/29 12:23:18;;;;;;;31.73;17.73;;;10.00;74.90;;;;;;5775003;22;20164;-71
2023/12/29 12:25:49;;;;;;;31.55;18.42;;;10.10;74.80;;;;;;5056350;28;20083;-70
2023/12/29 12:28:17;;;;;;;34.45;19.63;;;10.20;74.60;;;;;;5056618;28;20100;-70
2023/12/29 12:30:44;;;;;;;35.92;19.02;;;10.20;74.40;;;;;;5055061;28;20048;-72
2023/12/29 12:33:15;;;;;;;29.98;16.77;;;10.20;74.20;;;;;;5056914;28;20025;-71
2023/12/29 12:35:41;;;;;;;35.65;17.13;;;10.20;74.00;;;;;;5055946;28;20044;-69
2023/12/29 12:38:13;;;;;;;32.72;17.77;;;10.20;73.80;;;;;;5056166;28;20483;-71
2023/12/29 12:40:41;;;;;;;35.08;17.40;;;10.30;73.60;;;;;;5056444;28;20067;-70
2023/12/29 12:43:08;;;;;;;37.30;18.42;;;10.30;73.40;;;;;;5056210;28;20100;-70